sensor_id;sensor_type;location;lat;lon;timestamp;P1;durP1;ratioP1;P2;durP2;ratioP2
20065;SDS011;10193;48.884;9.182;2024-03-25T00:01:02;1.67;;;1.58;;
20065;SDS011;10193;48.884;9.182;2024-03-25T00:03:28;2.05;;;1.85;;
20065;SDS011;10193;48.884;9.182;2024-03-25T00:05:55;2.17;;;1.60;;
20065;SDS011;10193;48.884;9.182;2024-03-25T00:08:23;2.13;;;1.77;;
20065;SDS011;10193;48.884;9.182;2024-03-25T00:10:50;2.30;;;1.60;;
20065;SDS011;10193;48.884;9.182;2024-03-25T00:13:15;2.95;;;1.70;;
20065;SDS011;10193;48.884;9.182;2024-03-25T00:15:42;1.67;;;1.42;;
20065;SDS011;10193;48.884;9.182;2024-03-25T00:18:09;2.63;;;1.70;;
20065;SDS011;10193;48.884;9.182;2024-03-25T00:20:36;1.73;;;1.63;;
20065;SDS011;10193;48.884;9.182;2024-03-25T00:23:02;2.33;;;1.70;;
20065;SDS011;10193;48.884;9.182;2024-03-25T00:25:30;2.83;;;1.80;;
20065;SDS011;10193;48.884;9.182;2024-03-25T00:27:55;2.13;;;1.92;;
20065;SDS011;10193;48.884;9.182;2024-03-25T00:30:22;3.13;;;1.90;;
20065;SDS011;10193;48.884;9.182;2024-03-25T00:32:49;1.88;;;1.75;;
20065;SDS011;10193;48.884;9.182;2024-03-25T00:35:15;2.45;;;1.73;;
20065;SDS011;10193;48.884;9.182;2024-03-25T00:37:43;1.75;;;1.50;;
20065;SDS011;10193;48.884;9.182;2024-03-25T00:40:10;1.85;;;1.70;;
20065;SDS011;10193;48.884;9.182;2024-03-25T00:42:38;2.97;;;1.67;;
20065;SDS011;10193;48.884;9.182;2024-03-25T00:45:05;1.90;;;1.70;;
20065;SDS011;10193;48.884;9.182;2024-03-25T00:47:32;1.63;;;1.52;;
20065;SDS011;10193;48.884;9.182;2024-03-25T00:49:58;2.88;;;1.80;;
20065;SDS011;10193;48.884;9.182;2024-03-25T00:52:24;2.35;;;1.80;;
20065;SDS011;10193;48.884;9.182;2024-03-25T00:54:51;2.10;;;1.85;;
20065;SDS011;10193;48.884;9.182;2024-03-25T00:57:17;2.33;;;1.92;;
20065;SDS011;10193;48.884;9.182;2024-03-25T00:59:45;2.35;;;1.90;;
20065;SDS011;10193;48.884;9.182;2024-03-25T01:02:11;2.15;;;2.00;;
20065;SDS011;10193;48.884;9.182;2024-03-25T01:04:37;2.95;;;1.90;;
20065;SDS011;10193;48.884;9.182;2024-03-25T01:07:03;2.70;;;1.73;;
20065;SDS011;10193;48.884;9.182;2024-03-25T01:09:30;3.58;;;2.00;;
20065;SDS011;10193;48.884;9.182;2024-03-25T01:11:56;3.25;;;1.80;;
20065;SDS011;10193;48.884;9.182;2024-03-25T01:14:23;2.30;;;2.08;;
20065;SDS011;10193;48.884;9.182;2024-03-25T01:16:50;3.30;;;2.10;;
20065;SDS011;10193;48.884;9.182;2024-03-25T01:19:17;2.03;;;1.83;;
20065;SDS011;10193;48.884;9.182;2024-03-25T01:21:43;2.78;;;2.13;;
20065;SDS011;10193;48.884;9.182;2024-03-25T01:24:10;2.15;;;1.90;;
20065;SDS011;10193;48.884;9.182;2024-03-25T01:26:36;3.03;;;1.90;;
20065;SDS011;10193;48.884;9.182;2024-03-25T01:29:02;2.75;;;2.00;;
20065;SDS011;10193;48.884;9.182;2024-03-25T01:31:28;3.08;;;2.05;;
20065;SDS011;10193;48.884;9.182;2024-03-25T01:33:56;2.92;;;2.00;;
20065;SDS011;10193;48.884;9.182;2024-03-25T01:36:22;2.83;;;2.05;;
20065;SDS011;10193;48.884;9.182;2024-03-25T01:38:48;2.80;;;2.10;;
20065;SDS011;10193;48.884;9.182;2024-03-25T01:41:14;2.58;;;2.20;;
20065;SDS011;10193;48.884;9.182;2024-03-25T01:43:47;2.22;;;2.03;;
20065;SDS011;10193;48.884;9.182;2024-03-25T01:46:14;2.38;;;2.17;;
20065;SDS011;10193;48.884;9.182;2024-03-25T01:48:41;2.47;;;1.90;;
20065;SDS011;10193;48.884;9.182;2024-03-25T01:51:08;2.40;;;1.70;;
20065;SDS011;10193;48.884;9.182;2024-03-25T01:53:36;2.53;;;1.70;;
20065;SDS011;10193;48.884;9.182;2024-03-25T01:56:02;1.95;;;1.80;;
20065;SDS011;10193;48.884;9.182;2024-03-25T01:58:29;1.85;;;1.63;;
20065;SDS011;10193;48.884;9.182;2024-03-25T02:00:56;1.70;;;1.60;;
20065;SDS011;10193;48.884;9.182;2024-03-25T02:03:26;1.67;;;1.33;;
20065;SDS011;10193;48.884;9.182;2024-03-25T02:05:53;1.90;;;1.80;;
20065;SDS011;10193;48.884;9.182;2024-03-25T02:08:25;1.77;;;1.58;;
20065;SDS011;10193;48.884;9.182;2024-03-25T02:10:51;1.70;;;1.60;;
20065;SDS011;10193;48.884;9.182;2024-03-25T02:13:19;1.75;;;1.65;;
20065;SDS011;10193;48.884;9.182;2024-03-25T02:15:46;2.45;;;1.60;;
20065;SDS011;10193;48.884;9.182;2024-03-25T02:18:16;2.47;;;1.70;;
20065;SDS011;10193;48.884;9.182;2024-03-25T02:20:42;2.65;;;2.00;;
20065;SDS011;10193;48.884;9.182;2024-03-25T02:23:08;2.28;;;2.00;;
20065;SDS011;10193;48.884;9.182;2024-03-25T02:25:36;2.05;;;1.85;;
20065;SDS011;10193;48.884;9.182;2024-03-25T02:28:06;2.03;;;1.85;;
20065;SDS011;10193;48.884;9.182;2024-03-25T02:30:31;2.55;;;1.95;;
20065;SDS011;10193;48.884;9.182;2024-03-25T02:32:58;3.47;;;2.28;;
20065;SDS011;10193;48.884;9.182;2024-03-25T02:35:24;2.30;;;2.10;;
20065;SDS011;10193;48.884;9.182;2024-03-25T02:37:52;2.80;;;1.77;;
20065;SDS011;10193;48.884;9.182;2024-03-25T02:40:18;3.08;;;2.10;;
20065;SDS011;10193;48.884;9.182;2024-03-25T02:42:46;2.13;;;1.95;;
20065;SDS011;10193;48.884;9.182;2024-03-25T02:45:14;2.65;;;1.80;;
20065;SDS011;10193;48.884;9.182;2024-03-25T02:47:41;2.58;;;2.15;;
20065;SDS011;10193;48.884;9.182;2024-03-25T02:50:07;2.00;;;1.80;;
20065;SDS011;10193;48.884;9.182;2024-03-25T02:52:34;2.92;;;1.90;;
20065;SDS011;10193;48.884;9.182;2024-03-25T02:55:00;2.25;;;2.00;;
20065;SDS011;10193;48.884;9.182;2024-03-25T02:57:26;2.23;;;2.00;;
20065;SDS011;10193;48.884;9.182;2024-03-25T02:59:52;2.47;;;1.80;;
20065;SDS011;10193;48.884;9.182;2024-03-25T03:02:20;3.22;;;2.10;;
20065;SDS011;10193;48.884;9.182;2024-03-25T03:04:46;2.75;;;2.10;;
20065;SDS011;10193;48.884;9.182;2024-03-25T03:07:12;2.53;;;2.33;;
20065;SDS011;10193;48.884;9.182;2024-03-25T03:09:38;2.22;;;2.03;;
20065;SDS011;10193;48.884;9.182;2024-03-25T03:12:05;2.30;;;2.15;;
20065;SDS011;10193;48.884;9.182;2024-03-25T03:14:31;2.42;;;2.22;;
20065;SDS011;10193;48.884;9.182;2024-03-25T03:16:58;2.75;;;2.15;;
20065;SDS011;10193;48.884;9.182;2024-03-25T03:19:25;2.72;;;2.20;;
20065;SDS011;10193;48.884;9.182;2024-03-25T03:21:52;3.00;;;2.30;;
20065;SDS011;10193;48.884;9.182;2024-03-25T03:24:18;3.03;;;2.40;;
20065;SDS011;10193;48.884;9.182;2024-03-25T03:26:45;4.70;;;2.55;;
20065;SDS011;10193;48.884;9.182;2024-03-25T03:29:10;2.88;;;2.30;;
20065;SDS011;10193;48.884;9.182;2024-03-25T03:31:37;3.80;;;2.22;;
20065;SDS011;10193;48.884;9.182;2024-03-25T03:34:03;3.30;;;2.30;;
20065;SDS011;10193;48.884;9.182;2024-03-25T03:36:31;2.50;;;2.15;;
20065;SDS011;10193;48.884;9.182;2024-03-25T03:38:57;3.50;;;2.13;;
20065;SDS011;10193;48.884;9.182;2024-03-25T03:41:23;2.35;;;2.17;;
20065;SDS011;10193;48.884;9.182;2024-03-25T03:43:49;2.38;;;2.17;;
20065;SDS011;10193;48.884;9.182;2024-03-25T03:46:16;2.60;;;2.03;;
20065;SDS011;10193;48.884;9.182;2024-03-25T03:48:41;3.38;;;2.30;;
20065;SDS011;10193;48.884;9.182;2024-03-25T03:51:08;3.03;;;2.10;;
20065;SDS011;10193;48.884;9.182;2024-03-25T03:53:35;2.47;;;2.25;;
20065;SDS011;10193;48.884;9.182;2024-03-25T03:56:02;2.63;;;1.92;;
20065;SDS011;10193;48.884;9.182;2024-03-25T03:58:30;2.55;;;2.15;;
20065;SDS011;10193;48.884;9.182;2024-03-25T04:00:57;4.00;;;2.08;;
20065;SDS011;10193;48.884;9.182;2024-03-25T04:03:23;2.78;;;2.13;;
20065;SDS011;10193;48.884;9.182;2024-03-25T04:05:50;3.10;;;2.50;;
20065;SDS011;10193;48.884;9.182;2024-03-25T04:08:16;2.95;;;2.03;;
20065;SDS011;10193;48.884;9.182;2024-03-25T04:10:44;3.05;;;2.35;;
20065;SDS011;10193;48.884;9.182;2024-03-25T04:13:10;2.60;;;2.40;;
20065;SDS011;10193;48.884;9.182;2024-03-25T04:15:38;2.28;;;2.15;;
20065;SDS011;10193;48.884;9.182;2024-03-25T04:18:05;2.47;;;2.10;;
20065;SDS011;10193;48.884;9.182;2024-03-25T04:20:35;2.67;;;2.13;;
20065;SDS011;10193;48.884;9.182;2024-03-25T04:23:01;2.15;;;2.00;;
20065;SDS011;10193;48.884;9.182;2024-03-25T04:25:29;3.50;;;2.20;;
20065;SDS011;10193;48.884;9.182;2024-03-25T04:27:56;3.38;;;1.85;;
20065;SDS011;10193;48.884;9.182;2024-03-25T04:30:23;2.42;;;2.17;;
20065;SDS011;10193;48.884;9.182;2024-03-25T04:32:49;3.08;;;2.03;;
20065;SDS011;10193;48.884;9.182;2024-03-25T04:35:15;2.35;;;2.15;;
20065;SDS011;10193;48.884;9.182;2024-03-25T04:37:41;2.30;;;2.10;;
20065;SDS011;10193;48.884;9.182;2024-03-25T04:40:07;2.10;;;1.90;;
20065;SDS011;10193;48.884;9.182;2024-03-25T04:42:34;2.05;;;1.92;;
20065;SDS011;10193;48.884;9.182;2024-03-25T04:45:01;2.20;;;2.00;;
20065;SDS011;10193;48.884;9.182;2024-03-25T04:47:27;2.22;;;2.03;;
20065;SDS011;10193;48.884;9.182;2024-03-25T04:49:53;2.63;;;2.17;;
20065;SDS011;10193;48.884;9.182;2024-03-25T04:52:19;2.47;;;2.28;;
20065;SDS011;10193;48.884;9.182;2024-03-25T04:54:45;2.88;;;1.88;;
20065;SDS011;10193;48.884;9.182;2024-03-25T04:57:13;3.20;;;2.10;;
20065;SDS011;10193;48.884;9.182;2024-03-25T04:59:39;3.67;;;2.20;;
20065;SDS011;10193;48.884;9.182;2024-03-25T05:02:06;2.45;;;2.00;;
20065;SDS011;10193;48.884;9.182;2024-03-25T05:04:32;3.17;;;2.50;;
20065;SDS011;10193;48.884;9.182;2024-03-25T05:06:58;2.40;;;2.20;;
20065;SDS011;10193;48.884;9.182;2024-03-25T05:09:24;2.72;;;2.20;;
20065;SDS011;10193;48.884;9.182;2024-03-25T05:11:49;2.43;;;2.13;;
20065;SDS011;10193;48.884;9.182;2024-03-25T05:14:15;2.85;;;2.15;;
20065;SDS011;10193;48.884;9.182;2024-03-25T05:16:41;2.03;;;1.88;;
20065;SDS011;10193;48.884;9.182;2024-03-25T05:19:08;2.45;;;2.13;;
20065;SDS011;10193;48.884;9.182;2024-03-25T05:21:36;2.50;;;2.30;;
20065;SDS011;10193;48.884;9.182;2024-03-25T05:24:02;2.97;;;2.17;;
20065;SDS011;10193;48.884;9.182;2024-03-25T05:26:28;3.42;;;2.10;;
20065;SDS011;10193;48.884;9.182;2024-03-25T05:28:54;2.40;;;2.20;;
20065;SDS011;10193;48.884;9.182;2024-03-25T05:31:21;2.70;;;2.50;;
20065;SDS011;10193;48.884;9.182;2024-03-25T05:33:50;2.60;;;2.40;;
20065;SDS011;10193;48.884;9.182;2024-03-25T05:36:18;3.58;;;2.45;;
20065;SDS011;10193;48.884;9.182;2024-03-25T05:38:44;2.50;;;2.30;;
20065;SDS011;10193;48.884;9.182;2024-03-25T05:41:10;2.75;;;2.35;;
20065;SDS011;10193;48.884;9.182;2024-03-25T05:43:36;2.93;;;2.40;;
20065;SDS011;10193;48.884;9.182;2024-03-25T05:46:02;2.97;;;2.53;;
20065;SDS011;10193;48.884;9.182;2024-03-25T05:48:28;2.70;;;2.50;;
20065;SDS011;10193;48.884;9.182;2024-03-25T05:50:58;2.60;;;2.40;;
20065;SDS011;10193;48.884;9.182;2024-03-25T05:53:26;2.50;;;2.30;;
20065;SDS011;10193;48.884;9.182;2024-03-25T05:55:52;2.67;;;2.47;;
20065;SDS011;10193;48.884;9.182;2024-03-25T05:58:18;2.60;;;2.25;;
20065;SDS011;10193;48.884;9.182;2024-03-25T06:00:46;2.80;;;2.47;;
20065;SDS011;10193;48.884;9.182;2024-03-25T06:03:12;2.67;;;2.45;;
20065;SDS011;10193;48.884;9.182;2024-03-25T06:05:38;2.42;;;2.20;;
20065;SDS011;10193;48.884;9.182;2024-03-25T06:08:04;4.13;;;2.28;;
20065;SDS011;10193;48.884;9.182;2024-03-25T06:10:35;2.90;;;2.40;;
20065;SDS011;10193;48.884;9.182;2024-03-25T06:13:01;2.78;;;2.17;;
20065;SDS011;10193;48.884;9.182;2024-03-25T06:15:27;3.45;;;2.40;;
20065;SDS011;10193;48.884;9.182;2024-03-25T06:17:53;2.65;;;2.25;;
20065;SDS011;10193;48.884;9.182;2024-03-25T06:20:19;3.15;;;2.60;;
20065;SDS011;10193;48.884;9.182;2024-03-25T06:22:45;2.72;;;2.50;;
20065;SDS011;10193;48.884;9.182;2024-03-25T06:25:11;2.63;;;2.35;;
20065;SDS011;10193;48.884;9.182;2024-03-25T06:27:38;2.75;;;2.55;;
20065;SDS011;10193;48.884;9.182;2024-03-25T06:30:04;6.35;;;2.72;;
20065;SDS011;10193;48.884;9.182;2024-03-25T06:32:45;2.60;;;2.40;;
20065;SDS011;10193;48.884;9.182;2024-03-25T06:35:29;3.33;;;2.83;;
20065;SDS011;10193;48.884;9.182;2024-03-25T06:37:55;2.92;;;2.70;;
20065;SDS011;10193;48.884;9.182;2024-03-25T06:40:21;3.58;;;2.53;;
20065;SDS011;10193;48.884;9.182;2024-03-25T06:42:48;2.70;;;2.50;;
20065;SDS011;10193;48.884;9.182;2024-03-25T06:45:14;2.90;;;2.50;;
20065;SDS011;10193;48.884;9.182;2024-03-25T06:47:39;2.60;;;2.40;;
20065;SDS011;10193;48.884;9.182;2024-03-25T06:50:05;2.47;;;2.28;;
20065;SDS011;10193;48.884;9.182;2024-03-25T06:52:32;3.67;;;2.90;;
20065;SDS011;10193;48.884;9.182;2024-03-25T06:54:57;2.85;;;2.65;;
20065;SDS011;10193;48.884;9.182;2024-03-25T06:57:23;4.32;;;2.35;;
20065;SDS011;10193;48.884;9.182;2024-03-25T06:59:50;3.08;;;2.70;;
20065;SDS011;10193;48.884;9.182;2024-03-25T07:02:16;4.43;;;2.50;;
20065;SDS011;10193;48.884;9.182;2024-03-25T07:04:42;5.18;;;2.50;;
20065;SDS011;10193;48.884;9.182;2024-03-25T07:07:08;3.75;;;2.60;;
20065;SDS011;10193;48.884;9.182;2024-03-25T07:09:33;3.15;;;2.67;;
20065;SDS011;10193;48.884;9.182;2024-03-25T07:11:59;4.63;;;2.70;;
20065;SDS011;10193;48.884;9.182;2024-03-25T07:14:25;3.65;;;2.58;;
20065;SDS011;10193;48.884;9.182;2024-03-25T07:16:52;3.38;;;2.50;;
20065;SDS011;10193;48.884;9.182;2024-03-25T07:19:18;3.53;;;2.40;;
20065;SDS011;10193;48.884;9.182;2024-03-25T07:21:44;3.42;;;2.70;;
20065;SDS011;10193;48.884;9.182;2024-03-25T07:24:09;3.65;;;2.58;;
20065;SDS011;10193;48.884;9.182;2024-03-25T07:26:35;3.47;;;2.40;;
20065;SDS011;10193;48.884;9.182;2024-03-25T07:29:01;2.60;;;2.40;;
20065;SDS011;10193;48.884;9.182;2024-03-25T07:31:27;3.05;;;2.75;;
20065;SDS011;10193;48.884;9.182;2024-03-25T07:33:54;2.40;;;2.20;;
20065;SDS011;10193;48.884;9.182;2024-03-25T07:36:19;4.75;;;2.85;;
20065;SDS011;10193;48.884;9.182;2024-03-25T07:38:45;2.90;;;2.60;;
20065;SDS011;10193;48.884;9.182;2024-03-25T07:41:11;3.15;;;2.53;;
20065;SDS011;10193;48.884;9.182;2024-03-25T07:43:37;2.53;;;2.33;;
20065;SDS011;10193;48.884;9.182;2024-03-25T07:46:03;2.58;;;2.38;;
20065;SDS011;10193;48.884;9.182;2024-03-25T07:48:28;3.17;;;2.60;;
20065;SDS011;10193;48.884;9.182;2024-03-25T07:50:55;2.85;;;2.47;;
20065;SDS011;10193;48.884;9.182;2024-03-25T07:53:21;2.50;;;2.30;;
20065;SDS011;10193;48.884;9.182;2024-03-25T07:55:47;2.83;;;2.20;;
20065;SDS011;10193;48.884;9.182;2024-03-25T07:58:13;3.17;;;2.10;;
20065;SDS011;10193;48.884;9.182;2024-03-25T08:00:38;2.10;;;1.90;;
20065;SDS011;10193;48.884;9.182;2024-03-25T08:03:04;2.58;;;2.08;;
20065;SDS011;10193;48.884;9.182;2024-03-25T08:05:30;3.75;;;2.35;;
20065;SDS011;10193;48.884;9.182;2024-03-25T08:07:57;2.83;;;2.03;;
20065;SDS011;10193;48.884;9.182;2024-03-25T08:10:23;2.35;;;1.80;;
20065;SDS011;10193;48.884;9.182;2024-03-25T08:12:49;2.58;;;2.20;;
20065;SDS011;10193;48.884;9.182;2024-03-25T08:15:15;2.95;;;1.85;;
20065;SDS011;10193;48.884;9.182;2024-03-25T08:17:40;2.00;;;1.90;;
20065;SDS011;10193;48.884;9.182;2024-03-25T08:20:06;2.25;;;2.05;;
20065;SDS011;10193;48.884;9.182;2024-03-25T08:22:33;2.13;;;1.90;;
20065;SDS011;10193;48.884;9.182;2024-03-25T08:25:00;2.95;;;2.05;;
20065;SDS011;10193;48.884;9.182;2024-03-25T08:27:26;2.72;;;1.83;;
20065;SDS011;10193;48.884;9.182;2024-03-25T08:29:52;1.95;;;1.67;;
20065;SDS011;10193;48.884;9.182;2024-03-25T08:32:17;1.63;;;1.52;;
20065;SDS011;10193;48.884;9.182;2024-03-25T08:34:43;2.08;;;1.88;;
20065;SDS011;10193;48.884;9.182;2024-03-25T08:37:09;2.30;;;1.75;;
20065;SDS011;10193;48.884;9.182;2024-03-25T08:39:35;3.22;;;1.92;;
20065;SDS011;10193;48.884;9.182;2024-03-25T08:42:02;2.28;;;2.03;;
20065;SDS011;10193;48.884;9.182;2024-03-25T08:44:28;2.97;;;1.88;;
20065;SDS011;10193;48.884;9.182;2024-03-25T08:46:54;2.90;;;2.05;;
20065;SDS011;10193;48.884;9.182;2024-03-25T08:49:19;2.65;;;1.73;;
20065;SDS011;10193;48.884;9.182;2024-03-25T08:51:45;2.80;;;1.75;;
20065;SDS011;10193;48.884;9.182;2024-03-25T08:54:11;1.63;;;1.52;;
20065;SDS011;10193;48.884;9.182;2024-03-25T08:56:37;4.00;;;1.63;;
20065;SDS011;10193;48.884;9.182;2024-03-25T08:59:04;2.47;;;1.50;;
20065;SDS011;10193;48.884;9.182;2024-03-25T09:01:30;1.80;;;1.70;;
20065;SDS011;10193;48.884;9.182;2024-03-25T09:03:55;1.83;;;1.40;;
20065;SDS011;10193;48.884;9.182;2024-03-25T09:06:21;1.52;;;1.40;;
20065;SDS011;10193;48.884;9.182;2024-03-25T09:08:47;1.48;;;1.38;;
20065;SDS011;10193;48.884;9.182;2024-03-25T09:11:31;1.85;;;1.60;;
20065;SDS011;10193;48.884;9.182;2024-03-25T09:13:57;1.67;;;1.30;;
20065;SDS011;10193;48.884;9.182;2024-03-25T09:16:24;1.60;;;1.50;;
20065;SDS011;10193;48.884;9.182;2024-03-25T09:18:50;1.50;;;1.40;;
20065;SDS011;10193;48.884;9.182;2024-03-25T09:21:16;2.00;;;1.63;;
20065;SDS011;10193;48.884;9.182;2024-03-25T09:23:41;3.58;;;1.50;;
20065;SDS011;10193;48.884;9.182;2024-03-25T09:26:07;1.85;;;1.55;;
20065;SDS011;10193;48.884;9.182;2024-03-25T09:28:33;2.05;;;1.90;;
20065;SDS011;10193;48.884;9.182;2024-03-25T09:30:59;1.73;;;1.55;;
20065;SDS011;10193;48.884;9.182;2024-03-25T09:33:26;2.50;;;1.52;;
20065;SDS011;10193;48.884;9.182;2024-03-25T09:35:52;3.05;;;1.48;;
20065;SDS011;10193;48.884;9.182;2024-03-25T09:38:17;1.50;;;1.40;;
20065;SDS011;10193;48.884;9.182;2024-03-25T09:40:43;2.03;;;1.50;;
20065;SDS011;10193;48.884;9.182;2024-03-25T09:43:11;1.85;;;1.60;;
20065;SDS011;10193;48.884;9.182;2024-03-25T09:45:42;2.00;;;1.27;;
20065;SDS011;10193;48.884;9.182;2024-03-25T09:48:09;1.52;;;1.40;;
20065;SDS011;10193;48.884;9.182;2024-03-25T09:50:38;1.95;;;1.40;;
20065;SDS011;10193;48.884;9.182;2024-03-25T09:53:04;2.17;;;1.40;;
20065;SDS011;10193;48.884;9.182;2024-03-25T09:55:30;2.10;;;1.50;;
20065;SDS011;10193;48.884;9.182;2024-03-25T09:57:56;2.10;;;1.40;;
20065;SDS011;10193;48.884;9.182;2024-03-25T10:00:24;1.73;;;1.55;;
20065;SDS011;10193;48.884;9.182;2024-03-25T10:02:51;2.22;;;1.30;;
20065;SDS011;10193;48.884;9.182;2024-03-25T10:05:17;2.35;;;1.70;;
20065;SDS011;10193;48.884;9.182;2024-03-25T10:07:44;3.15;;;1.40;;
20065;SDS011;10193;48.884;9.182;2024-03-25T10:10:10;2.03;;;1.35;;
20065;SDS011;10193;48.884;9.182;2024-03-25T10:12:36;1.70;;;1.20;;
20065;SDS011;10193;48.884;9.182;2024-03-25T10:15:02;0.90;;;0.90;;
20065;SDS011;10193;48.884;9.182;2024-03-25T10:17:30;1.52;;;1.35;;
20065;SDS011;10193;48.884;9.182;2024-03-25T10:19:56;2.10;;;1.20;;
20065;SDS011;10193;48.884;9.182;2024-03-25T10:22:22;1.33;;;1.20;;
20065;SDS011;10193;48.884;9.182;2024-03-25T10:24:49;1.30;;;1.20;;
20065;SDS011;10193;48.884;9.182;2024-03-25T10:27:18;1.52;;;1.10;;
20065;SDS011;10193;48.884;9.182;2024-03-25T10:29:45;1.73;;;1.30;;
20065;SDS011;10193;48.884;9.182;2024-03-25T10:32:12;1.55;;;1.38;;
20065;SDS011;10193;48.884;9.182;2024-03-25T10:34:38;1.30;;;1.20;;
20065;SDS011;10193;48.884;9.182;2024-03-25T10:37:04;1.30;;;1.20;;
20065;SDS011;10193;48.884;9.182;2024-03-25T10:39:33;1.45;;;1.35;;
20065;SDS011;10193;48.884;9.182;2024-03-25T10:42:06;3.03;;;1.50;;
20065;SDS011;10193;48.884;9.182;2024-03-25T10:44:33;1.95;;;1.45;;
20065;SDS011;10193;48.884;9.182;2024-03-25T10:47:00;1.42;;;1.33;;
20065;SDS011;10193;48.884;9.182;2024-03-25T10:49:32;1.52;;;1.30;;
20065;SDS011;10193;48.884;9.182;2024-03-25T10:52:01;1.80;;;1.38;;
20065;SDS011;10193;48.884;9.182;2024-03-25T10:54:29;1.88;;;1.20;;
20065;SDS011;10193;48.884;9.182;2024-03-25T10:56:56;2.05;;;1.15;;
20065;SDS011;10193;48.884;9.182;2024-03-25T10:59:25;1.77;;;1.40;;
20065;SDS011;10193;48.884;9.182;2024-03-25T11:01:52;2.53;;;1.27;;
20065;SDS011;10193;48.884;9.182;2024-03-25T11:04:18;1.63;;;1.23;;
20065;SDS011;10193;48.884;9.182;2024-03-25T11:06:44;1.20;;;1.10;;
20065;SDS011;10193;48.884;9.182;2024-03-25T11:09:10;1.95;;;1.40;;
20065;SDS011;10193;48.884;9.182;2024-03-25T11:11:47;1.23;;;1.10;;
20065;SDS011;10193;48.884;9.182;2024-03-25T11:14:15;1.73;;;1.10;;
20065;SDS011;10193;48.884;9.182;2024-03-25T11:16:42;0.98;;;0.93;;
20065;SDS011;10193;48.884;9.182;2024-03-25T11:19:10;1.25;;;1.05;;
20065;SDS011;10193;48.884;9.182;2024-03-25T11:21:36;1.52;;;1.10;;
20065;SDS011;10193;48.884;9.182;2024-03-25T11:24:05;1.42;;;1.33;;
20065;SDS011;10193;48.884;9.182;2024-03-25T11:26:31;1.17;;;1.08;;
20065;SDS011;10193;48.884;9.182;2024-03-25T11:28:58;1.55;;;1.23;;
20065;SDS011;10193;48.884;9.182;2024-03-25T11:31:24;1.40;;;1.30;;
20065;SDS011;10193;48.884;9.182;2024-03-25T11:33:52;3.20;;;1.40;;
20065;SDS011;10193;48.884;9.182;2024-03-25T11:36:18;1.80;;;1.40;;
20065;SDS011;10193;48.884;9.182;2024-03-25T11:38:45;1.63;;;1.20;;
20065;SDS011;10193;48.884;9.182;2024-03-25T11:41:11;1.33;;;1.23;;
20065;SDS011;10193;48.884;9.182;2024-03-25T11:43:37;1.30;;;1.20;;
20065;SDS011;10193;48.884;9.182;2024-03-25T11:46:03;1.75;;;1.35;;
20065;SDS011;10193;48.884;9.182;2024-03-25T11:48:29;1.52;;;1.38;;
20065;SDS011;10193;48.884;9.182;2024-03-25T11:50:56;1.85;;;1.45;;
20065;SDS011;10193;48.884;9.182;2024-03-25T11:53:22;1.73;;;1.40;;
20065;SDS011;10193;48.884;9.182;2024-03-25T11:55:47;1.58;;;1.38;;
20065;SDS011;10193;48.884;9.182;2024-03-25T11:58:13;1.50;;;1.40;;
20065;SDS011;10193;48.884;9.182;2024-03-25T12:00:43;1.85;;;1.35;;
20065;SDS011;10193;48.884;9.182;2024-03-25T12:03:09;1.63;;;1.33;;
20065;SDS011;10193;48.884;9.182;2024-03-25T12:05:35;1.95;;;1.40;;
20065;SDS011;10193;48.884;9.182;2024-03-25T12:08:02;1.65;;;1.50;;
20065;SDS011;10193;48.884;9.182;2024-03-25T12:10:29;1.50;;;1.40;;
20065;SDS011;10193;48.884;9.182;2024-03-25T12:13:13;1.75;;;1.65;;
20065;SDS011;10193;48.884;9.182;2024-03-25T12:15:38;1.83;;;1.40;;
20065;SDS011;10193;48.884;9.182;2024-03-25T12:18:04;2.28;;;1.60;;
20065;SDS011;10193;48.884;9.182;2024-03-25T12:20:31;1.83;;;1.73;;
20065;SDS011;10193;48.884;9.182;2024-03-25T12:22:57;2.22;;;1.70;;
20065;SDS011;10193;48.884;9.182;2024-03-25T12:25:24;1.70;;;1.60;;
20065;SDS011;10193;48.884;9.182;2024-03-25T12:27:50;1.60;;;1.50;;
20065;SDS011;10193;48.884;9.182;2024-03-25T12:30:15;1.77;;;1.45;;
20065;SDS011;10193;48.884;9.182;2024-03-25T12:32:44;2.42;;;1.63;;
20065;SDS011;10193;48.884;9.182;2024-03-25T12:35:11;1.77;;;1.67;;
20065;SDS011;10193;48.884;9.182;2024-03-25T12:37:38;1.67;;;1.58;;
20065;SDS011;10193;48.884;9.182;2024-03-25T12:40:05;1.38;;;1.27;;
20065;SDS011;10193;48.884;9.182;2024-03-25T12:42:33;2.00;;;1.80;;
20065;SDS011;10193;48.884;9.182;2024-03-25T12:44:59;1.45;;;1.35;;
20065;SDS011;10193;48.884;9.182;2024-03-25T12:47:25;1.70;;;1.55;;
20065;SDS011;10193;48.884;9.182;2024-03-25T12:49:51;2.72;;;1.80;;
20065;SDS011;10193;48.884;9.182;2024-03-25T12:52:17;2.55;;;1.90;;
20065;SDS011;10193;48.884;9.182;2024-03-25T12:54:43;2.05;;;1.80;;
20065;SDS011;10193;48.884;9.182;2024-03-25T12:57:09;1.65;;;1.55;;
20065;SDS011;10193;48.884;9.182;2024-03-25T12:59:37;1.77;;;1.58;;
20065;SDS011;10193;48.884;9.182;2024-03-25T13:02:03;1.52;;;1.42;;
20065;SDS011;10193;48.884;9.182;2024-03-25T13:04:29;2.42;;;1.80;;
20065;SDS011;10193;48.884;9.182;2024-03-25T13:06:55;2.65;;;1.83;;
20065;SDS011;10193;48.884;9.182;2024-03-25T13:09:21;1.60;;;1.50;;
20065;SDS011;10193;48.884;9.182;2024-03-25T13:11:47;1.90;;;1.60;;
20065;SDS011;10193;48.884;9.182;2024-03-25T13:14:13;2.05;;;1.60;;
20065;SDS011;10193;48.884;9.182;2024-03-25T13:16:40;1.70;;;1.33;;
20065;SDS011;10193;48.884;9.182;2024-03-25T13:19:06;1.70;;;1.60;;
20065;SDS011;10193;48.884;9.182;2024-03-25T13:21:32;1.73;;;1.63;;
20065;SDS011;10193;48.884;9.182;2024-03-25T13:23:58;1.65;;;1.40;;
20065;SDS011;10193;48.884;9.182;2024-03-25T13:26:23;2.15;;;1.60;;
20065;SDS011;10193;48.884;9.182;2024-03-25T13:28:49;1.98;;;1.60;;
20065;SDS011;10193;48.884;9.182;2024-03-25T13:31:15;1.92;;;1.70;;
20065;SDS011;10193;48.884;9.182;2024-03-25T13:33:42;1.45;;;1.35;;
20065;SDS011;10193;48.884;9.182;2024-03-25T13:36:08;2.47;;;1.60;;
20065;SDS011;10193;48.884;9.182;2024-03-25T13:38:34;1.60;;;1.50;;
20065;SDS011;10193;48.884;9.182;2024-03-25T13:41:00;1.58;;;1.42;;
20065;SDS011;10193;48.884;9.182;2024-03-25T13:43:26;2.10;;;1.60;;
20065;SDS011;10193;48.884;9.182;2024-03-25T13:45:52;2.38;;;1.55;;
20065;SDS011;10193;48.884;9.182;2024-03-25T13:48:18;1.20;;;1.10;;
20065;SDS011;10193;48.884;9.182;2024-03-25T13:50:45;1.92;;;1.58;;
20065;SDS011;10193;48.884;9.182;2024-03-25T13:53:11;1.58;;;1.30;;
20065;SDS011;10193;48.884;9.182;2024-03-25T13:55:37;2.00;;;1.52;;
20065;SDS011;10193;48.884;9.182;2024-03-25T13:58:03;1.80;;;1.55;;
20065;SDS011;10193;48.884;9.182;2024-03-25T14:00:29;1.58;;;1.48;;
20065;SDS011;10193;48.884;9.182;2024-03-25T14:02:55;1.60;;;1.50;;
20065;SDS011;10193;48.884;9.182;2024-03-25T14:05:20;2.05;;;1.38;;
20065;SDS011;10193;48.884;9.182;2024-03-25T14:07:48;1.33;;;1.20;;
20065;SDS011;10193;48.884;9.182;2024-03-25T14:10:13;1.25;;;1.15;;
20065;SDS011;10193;48.884;9.182;2024-03-25T14:12:39;1.42;;;1.33;;
20065;SDS011;10193;48.884;9.182;2024-03-25T14:15:05;1.50;;;1.40;;
20065;SDS011;10193;48.884;9.182;2024-03-25T14:17:32;1.40;;;1.30;;
20065;SDS011;10193;48.884;9.182;2024-03-25T14:19:58;1.63;;;1.30;;
20065;SDS011;10193;48.884;9.182;2024-03-25T14:22:24;2.50;;;1.40;;
20065;SDS011;10193;48.884;9.182;2024-03-25T14:24:51;1.50;;;1.30;;
20065;SDS011;10193;48.884;9.182;2024-03-25T14:27:17;1.92;;;1.35;;
20065;SDS011;10193;48.884;9.182;2024-03-25T14:29:43;1.58;;;1.30;;
20065;SDS011;10193;48.884;9.182;2024-03-25T14:32:09;1.55;;;1.00;;
20065;SDS011;10193;48.884;9.182;2024-03-25T14:34:35;1.80;;;1.23;;
20065;SDS011;10193;48.884;9.182;2024-03-25T14:37:00;2.20;;;1.50;;
20065;SDS011;10193;48.884;9.182;2024-03-25T14:39:26;1.48;;;1.17;;
20065;SDS011;10193;48.884;9.182;2024-03-25T14:41:53;1.50;;;1.40;;
20065;SDS011;10193;48.884;9.182;2024-03-25T14:44:19;1.27;;;1.15;;